Time;durP1;ratioP1;P1;durP2;ratioP2;P2;SDS_P1;SDS_P2;PMS_P1;PMS_P2;Temp;Humidity;BMP_temperature;BMP_pressure;BME280_temperature;BME280_humidity;BME280_pressure;Samples;Min_cycle;Max_cycle;Signal;HPM_P1;HPM_P2
2022/01/23 00:01:06;;;;;;;163.98;73.13;;;;;;;;;;4977684;28;20395;-79
2022/01/23 00:03:33;;;;;;;163.57;71.28;;;;;;;;;;4977767;28;20424;-79
2022/01/23 00:06:01;;;;;;;205.65;88.40;;;;;;;;;;4977634;28;20049;-79
2022/01/23 00:08:29;;;;;;;209.73;92.25;;;;;;;;;;4977668;28;20365;-79
2022/01/23 00:10:57;;;;;;;232.77;101.00;;;;;;;;;;4977896;28;20026;-79
2022/01/23 00:13:29;;;;;;;223.25;98.90;;;;;;;;;;5005845;28;20025;-79
2022/01/23 00:18:43;;;;;;;250.70;106.22;;;;;;;;;;5058235;28;20024;-78
2022/01/23 00:21:11;;;;;;;239.80;103.22;;;;;;;;;;5058139;28;20017;-79
2022/01/23 00:31:41;;;;;;;235.65;100.72;;;;;;;;;;5057145;28;20032;-79
2022/01/23 00:34:09;;;;;;;236.35;100.18;;;;;;;;;;5057199;28;20021;-79
2022/01/23 00:36:36;;;;;;;232.38;103.88;;;;;;;;;;5057120;28;20032;-78
2022/01/23 00:39:04;;;;;;;249.80;115.65;;;;;;;;;;5057058;28;20072;-79
2022/01/23 00:41:32;;;;;;;270.73;138.73;;;;;;;;;;5056860;28;20021;-80
2022/01/23 00:44:00;;;;;;;233.65;111.47;;;;;;;;;;5056819;28;20257;-79
2022/01/23 00:46:34;;;;;;;231.93;114.85;;;;;;;;;;5039114;28;20025;-79
2022/01/23 00:51:37;;;;;;;226.70;110.82;;;;;;;;;;5056785;28;20076;-79
2022/01/23 00:54:06;;;;;;;209.18;98.68;;;;;;;;;;5039042;28;20040;-79
2022/01/23 00:56:33;;;;;;;232.05;106.05;;;;;;;;;;5056408;28;20441;-79
2022/01/23 00:59:01;;;;;;;191.77;89.00;;;;;;;;;;5056529;28;20325;-79
2022/01/23 01:01:28;;;;;;;193.70;86.53;;;;;;;;;;5038676;28;20028;-78
2022/01/23 01:03:56;;;;;;;182.30;80.43;;;;;;;;;;5055646;28;20040;-78
2022/01/23 01:06:23;;;;;;;202.48;88.68;;;;;;;;;;5038571;28;20032;-78
2022/01/23 01:08:54;;;;;;;219.40;98.43;;;;;;;;;;5038699;28;20108;-78
2022/01/23 01:35:41;;;;;;;175.63;83.55;;;;;;;;;;5055751;28;20021;-78
2022/01/23 01:38:09;;;;;;;164.73;73.57;;;;;;;;;;5055917;28;20440;-77
2022/01/23 01:40:36;;;;;;;156.30;69.65;;;;;;;;;;5055807;28;20028;-78
2022/01/23 01:43:04;;;;;;;150.18;65.55;;;;;;;;;;5037992;28;20075;-77
2022/01/23 01:45:33;;;;;;;150.93;66.40;;;;;;;;;;5055789;28;20044;-78
2022/01/23 01:48:01;;;;;;;158.55;68.93;;;;;;;;;;5037859;28;20051;-78
2022/01/23 01:50:30;;;;;;;156.75;68.30;;;;;;;;;;5055635;28;20028;-78
2022/01/23 01:52:58;;;;;;;164.95;69.32;;;;;;;;;;5037894;28;20017;-78
2022/01/23 01:55:29;;;;;;;152.70;67.38;;;;;;;;;;5037940;28;20025;-79
2022/01/23 01:58:02;;;;;;;147.80;65.63;;;;;;;;;;5055692;28;20076;-79
2022/01/23 02:08:32;;;;;;;135.75;60.67;;;;;;;;;;5055725;28;20417;-78
2022/01/23 02:14:09;;;;;;;133.93;61.03;;;;;;;;;;4975045;28;20131;-77
2022/01/23 02:17:04;;;;;;;131.45;59.20;;;;;;;;;;4978479;28;20384;-77
2022/01/23 02:55:25;;;;;;;102.65;44.55;;;;;;;;;;5059099;28;20021;-78
2022/01/23 02:57:55;;;;;;;103.70;44.13;;;;;;;;;;5058792;28;20380;-78
2022/01/23 03:00:24;;;;;;;95.72;43.70;;;;;;;;;;5058582;28;20103;-78
2022/01/23 03:03:00;;;;;;;97.50;46.22;;;;;;;;;;5058947;28;20104;-78
2022/01/23 03:10:27;;;;;;;114.82;53.60;;;;;;;;;;5058541;28;20025;-79
2022/01/23 03:31:38;;;;;;;95.70;42.67;;;;;;;;;;5058304;28;20064;-81
2022/01/23 03:34:06;;;;;;;81.07;37.17;;;;;;;;;;5058260;28;20021;-81
2022/01/23 03:36:34;;;;;;;90.13;42.00;;;;;;;;;;5040493;28;20036;-81
2022/01/23 03:39:02;;;;;;;80.68;40.83;;;;;;;;;;5040244;28;20021;-82
2022/01/23 03:41:29;;;;;;;85.28;42.92;;;;;;;;;;5040386;28;20503;-81
2022/01/23 03:43:57;;;;;;;87.40;44.83;;;;;;;;;;5057970;28;20036;-82
2022/01/23 03:51:49;;;;;;;92.78;41.67;;;;;;;;;;5057926;28;20501;-83
2022/01/23 03:54:17;;;;;;;103.57;46.65;;;;;;;;;;5040149;28;20334;-84
2022/01/23 03:56:43;;;;;;;96.35;44.90;;;;;;;;;;5057152;28;20056;-84
2022/01/23 03:59:10;;;;;;;106.72;50.72;;;;;;;;;;5039291;28;20032;-83
2022/01/23 04:01:37;;;;;;;102.10;48.13;;;;;;;;;;5039605;28;20032;-83
2022/01/23 04:04:15;;;;;;;93.65;43.88;;;;;;;;;;5057703;28;20021;-81
2022/01/23 04:06:43;;;;;;;153.73;60.25;;;;;;;;;;5057399;28;20025;-81
2022/01/23 04:09:10;;;;;;;119.63;49.22;;;;;;;;;;5039738;28;20029;-82
2022/01/23 04:11:38;;;;;;;137.88;60.55;;;;;;;;;;5057386;28;20025;-81
2022/01/23 04:14:09;;;;;;;111.53;51.15;;;;;;;;;;5057650;28;20021;-82
2022/01/23 04:17:03;;;;;;;94.22;44.13;;;;;;;;;;5057176;28;20299;-81
2022/01/23 04:47:52;;;;;;;158.48;68.63;;;;;;;;;;5056943;28;20052;-81
2022/01/23 05:00:54;;;;;;;98.65;45.03;;;;;;;;;;5056610;28;20043;-75
2022/01/23 05:04:06;;;;;;;78.43;35.28;;;;;;;;;;5056642;28;20025;-75
2022/01/23 05:06:36;;;;;;;97.75;46.20;;;;;;;;;;5056334;28;20112;-74
2022/01/23 05:09:15;;;;;;;123.03;56.33;;;;;;;;;;5057402;28;20394;-79
2022/01/23 05:11:49;;;;;;;113.80;52.60;;;;;;;;;;5038926;28;20025;-76
2022/01/23 05:14:21;;;;;;;122.25;56.55;;;;;;;;;;4995464;28;20031;-75
2022/01/23 05:16:48;;;;;;;136.50;62.28;;;;;;;;;;4995166;28;20437;-76
2022/01/23 05:19:16;;;;;;;136.07;59.22;;;;;;;;;;4996008;28;20044;-76
2022/01/23 05:24:39;;;;;;;118.82;51.95;;;;;;;;;;4995527;28;20085;-76
2022/01/23 05:27:08;;;;;;;106.13;48.35;;;;;;;;;;4995548;28;20030;-75
2022/01/23 05:29:36;;;;;;;115.72;54.92;;;;;;;;;;4979203;28;20031;-75
2022/01/23 05:32:05;;;;;;;121.68;58.10;;;;;;;;;;4995537;28;20022;-77
2022/01/23 05:34:32;;;;;;;105.60;50.63;;;;;;;;;;4979444;28;20388;-75
2022/01/23 05:37:00;;;;;;;107.70;51.08;;;;;;;;;;4980286;28;20034;-80
2022/01/23 05:39:32;;;;;;;119.57;54.22;;;;;;;;;;4979420;28;20431;-79
2022/01/23 05:42:06;;;;;;;142.10;62.55;;;;;;;;;;4979698;28;20030;-79
2022/01/23 05:44:41;;;;;;;185.88;92.93;;;;;;;;;;4978818;28;20027;-81
2022/01/23 05:47:10;;;;;;;140.48;71.47;;;;;;;;;;4978621;28;20038;-79
2022/01/23 05:49:41;;;;;;;114.03;53.97;;;;;;;;;;4978575;28;20030;-85
2022/01/23 05:52:12;;;;;;;113.93;53.13;;;;;;;;;;4978877;28;20026;-81
2022/01/23 05:54:49;;;;;;;117.05;55.15;;;;;;;;;;4979842;28;20034;-80
2022/01/23 05:57:15;;;;;;;101.05;49.05;;;;;;;;;;4979305;28;20058;-81
2022/01/23 05:59:42;;;;;;;130.45;60.95;;;;;;;;;;4979254;28;20050;-81
2022/01/23 06:02:09;;;;;;;115.05;53.20;;;;;;;;;;4979824;28;20037;-81
2022/01/23 06:04:37;;;;;;;115.68;55.72;;;;;;;;;;5013305;28;20036;-81
2022/01/23 06:07:05;;;;;;;106.20;51.33;;;;;;;;;;5056316;28;20028;-81
2022/01/23 06:09:41;;;;;;;118.50;54.90;;;;;;;;;;5039287;28;20108;-82
2022/01/23 06:12:09;;;;;;;122.85;55.63;;;;;;;;;;5039407;28;20025;-83
2022/01/23 06:14:39;;;;;;;103.22;47.53;;;;;;;;;;5038867;28;20053;-82
2022/01/23 06:17:07;;;;;;;111.80;55.28;;;;;;;;;;5039716;28;20036;-83
2022/01/23 06:19:36;;;;;;;116.40;51.05;;;;;;;;;;5057102;28;20032;-83
2022/01/23 06:22:04;;;;;;;115.82;51.15;;;;;;;;;;5056348;28;20080;-82
2022/01/23 06:24:33;;;;;;;113.10;50.25;;;;;;;;;;5038616;28;20025;-82
2022/01/23 06:27:02;;;;;;;105.80;49.13;;;;;;;;;;5038759;28;20329;-84
2022/01/23 06:29:30;;;;;;;110.75;49.33;;;;;;;;;;5038457;28;20064;-85
2022/01/23 06:32:02;;;;;;;121.05;59.25;;;;;;;;;;5038397;28;20029;-83
2022/01/23 06:34:30;;;;;;;112.88;52.30;;;;;;;;;;5038415;28;20028;-85
2022/01/23 06:36:58;;;;;;;103.28;49.45;;;;;;;;;;5039897;28;20045;-83
2022/01/23 06:39:26;;;;;;;120.65;54.10;;;;;;;;;;5039544;28;20025;-85
2022/01/23 06:41:54;;;;;;;100.57;48.25;;;;;;;;;;5056395;28;20032;-83
2022/01/23 06:44:26;;;;;;;112.75;50.65;;;;;;;;;;5055780;28;20021;-84
2022/01/23 06:46:53;;;;;;;111.25;50.85;;;;;;;;;;5038026;28;20305;-83
2022/01/23 06:49:21;;;;;;;98.20;48.08;;;;;;;;;;5039385;28;20032;-83
2022/01/23 06:51:49;;;;;;;130.15;61.90;;;;;;;;;;5056492;28;20426;-83
2022/01/23 06:54:17;;;;;;;120.28;58.53;;;;;;;;;;5038599;28;20025;-83
2022/01/23 06:56:43;;;;;;;122.60;55.47;;;;;;;;;;5055544;28;20049;-83
2022/01/23 06:59:10;;;;;;;135.95;58.72;;;;;;;;;;5038178;28;20104;-82
2022/01/23 07:02:07;;;;;;;124.10;57.33;;;;;;;;;;5045996;28;20092;-82
2022/01/23 07:04:46;;;;;;;129.65;60.97;;;;;;;;;;5061618;28;20060;-83
2022/01/23 07:07:16;;;;;;;122.18;58.28;;;;;;;;;;5069176;28;20027;-85
2022/01/23 07:09:43;;;;;;;130.27;57.33;;;;;;;;;;5043578;28;20025;-84
2022/01/23 07:12:11;;;;;;;127.28;57.47;;;;;;;;;;5065385;28;20021;-84
2022/01/23 07:14:39;;;;;;;118.22;54.35;;;;;;;;;;5046646;28;20392;-84
2022/01/23 07:17:06;;;;;;;118.70;51.45;;;;;;;;;;5060310;28;20032;-81
2022/01/23 07:19:36;;;;;;;116.38;53.38;;;;;;;;;;5041204;28;20028;-82
2022/01/23 07:22:04;;;;;;;119.43;53.08;;;;;;;;;;5042312;28;20136;-87
2022/01/23 07:24:33;;;;;;;112.68;51.83;;;;;;;;;;5043088;28;20029;-88
2022/01/23 07:27:11;;;;;;;113.65;52.80;;;;;;;;;;5042521;28;20033;-86
2022/01/23 07:29:41;;;;;;;123.32;52.45;;;;;;;;;;5043297;28;20087;-87
2022/01/23 07:32:10;;;;;;;118.15;55.47;;;;;;;;;;5060645;28;20028;-86
2022/01/23 07:34:38;;;;;;;121.95;55.83;;;;;;;;;;5060830;28;20060;-88
2022/01/23 07:37:06;;;;;;;115.78;51.20;;;;;;;;;;5043170;28;20334;-81
2022/01/23 07:39:33;;;;;;;115.03;48.22;;;;;;;;;;5041619;28;20029;-79
2022/01/23 07:42:01;;;;;;;120.97;54.00;;;;;;;;;;5041592;28;20032;-79
2022/01/23 07:44:29;;;;;;;74.57;33.75;;;;;;;;;;5040579;28;20433;-80
2022/01/23 07:46:57;;;;;;;58.92;26.40;;;;;;;;;;5040686;28;20120;-80
2022/01/23 07:49:26;;;;;;;67.22;30.52;;;;;;;;;;5058502;28;20056;-79
2022/01/23 07:51:54;;;;;;;74.45;33.45;;;;;;;;;;5040426;28;20029;-80
2022/01/23 07:54:22;;;;;;;60.90;25.83;;;;;;;;;;5058476;28;20028;-77
2022/01/23 07:56:49;;;;;;;74.50;33.50;;;;;;;;;;5040707;28;20060;-78
2022/01/23 07:59:15;;;;;;;66.25;32.10;;;;;;;;;;5041076;28;20121;-78
2022/01/23 08:01:46;;;;;;;84.07;36.55;;;;;;;;;;5042028;28;20311;-77
2022/01/23 08:04:13;;;;;;;69.13;37.60;;;;;;;;;;5058751;28;20029;-78
2022/01/23 08:06:44;;;;;;;63.25;31.85;;;;;;;;;;5040496;28;20032;-77
2022/01/23 08:09:15;;;;;;;56.42;27.17;;;;;;;;;;5057830;28;20025;-77
2022/01/23 08:11:42;;;;;;;59.25;26.25;;;;;;;;;;5040624;28;20024;-77
2022/01/23 08:14:10;;;;;;;59.53;28.58;;;;;;;;;;5039876;28;20322;-78
2022/01/23 08:16:37;;;;;;;55.13;27.58;;;;;;;;;;5057772;28;20029;-77
2022/01/23 08:19:04;;;;;;;65.45;33.20;;;;;;;;;;5058627;28;20133;-77
2022/01/23 08:21:33;;;;;;;88.22;39.90;;;;;;;;;;5039930;28;20021;-77
2022/01/23 08:24:00;;;;;;;72.45;36.30;;;;;;;;;;5058102;28;20036;-78
2022/01/23 08:26:37;;;;;;;76.93;39.10;;;;;;;;;;5040143;28;20025;-76
2022/01/23 08:29:05;;;;;;;79.45;43.90;;;;;;;;;;5057400;28;20287;-79
2022/01/23 08:31:33;;;;;;;69.18;33.38;;;;;;;;;;5057133;28;20027;-78
2022/01/23 08:34:01;;;;;;;66.15;31.50;;;;;;;;;;5057820;28;20029;-78
2022/01/23 08:36:31;;;;;;;62.80;30.50;;;;;;;;;;5059037;28;20021;-79
2022/01/23 08:39:01;;;;;;;74.35;35.80;;;;;;;;;;5057934;28;20025;-78
2022/01/23 08:44:14;;;;;;;91.70;42.45;;;;;;;;;;5057742;28;20039;-80
2022/01/23 08:46:42;;;;;;;88.97;43.75;;;;;;;;;;5061479;28;20426;-77
2022/01/23 08:49:10;;;;;;;107.25;49.58;;;;;;;;;;5056877;28;20036;-82
2022/01/23 08:51:39;;;;;;;92.38;46.17;;;;;;;;;;5056599;28;20036;-79
2022/01/23 08:54:07;;;;;;;72.07;32.83;;;;;;;;;;5038967;28;20027;-77
2022/01/23 08:56:33;;;;;;;88.47;40.05;;;;;;;;;;5038674;28;20077;-77
2022/01/23 08:59:01;;;;;;;91.93;44.92;;;;;;;;;;5039988;28;20029;-77
2022/01/23 09:01:29;;;;;;;102.38;47.33;;;;;;;;;;5057596;28;20025;-78
2022/01/23 09:03:57;;;;;;;92.45;43.33;;;;;;;;;;5057575;28;20092;-78
2022/01/23 09:06:26;;;;;;;62.45;31.58;;;;;;;;;;5056792;28;20029;-76
2022/01/23 09:08:54;;;;;;;73.20;36.05;;;;;;;;;;5056378;28;20430;-77
2022/01/23 09:14:06;;;;;;;74.15;35.10;;;;;;;;;;5056652;28;20503;-75
2022/01/23 09:16:39;;;;;;;78.40;40.78;;;;;;;;;;5056365;28;20021;-77
2022/01/23 09:19:06;;;;;;;70.97;35.10;;;;;;;;;;5039483;28;20025;-78
2022/01/23 09:21:35;;;;;;;70.35;34.50;;;;;;;;;;5056199;28;20513;-77
2022/01/23 09:24:02;;;;;;;68.07;34.33;;;;;;;;;;5051037;28;20031;-77
2022/01/23 09:26:33;;;;;;;83.40;38.88;;;;;;;;;;5055887;28;20021;-76
2022/01/23 09:29:02;;;;;;;81.50;38.78;;;;;;;;;;5056110;28;20051;-77
2022/01/23 09:31:45;;;;;;;77.03;37.75;;;;;;;;;;5056071;28;20025;-77
2022/01/23 09:34:13;;;;;;;86.82;41.25;;;;;;;;;;5054810;28;20021;-77
2022/01/23 09:36:40;;;;;;;86.53;42.05;;;;;;;;;;5055978;28;20318;-78
2022/01/23 09:39:14;;;;;;;91.28;44.05;;;;;;;;;;5056024;28;20032;-78
2022/01/23 09:41:48;;;;;;;87.55;45.28;;;;;;;;;;5054912;28;20029;-77
2022/01/23 09:44:17;;;;;;;88.53;43.65;;;;;;;;;;5056052;28;20070;-76
2022/01/23 09:46:45;;;;;;;124.35;55.90;;;;;;;;;;5055807;28;20108;-77
2022/01/23 09:49:14;;;;;;;105.38;49.88;;;;;;;;;;5054638;28;20031;-76
2022/01/23 09:51:42;;;;;;;157.40;73.25;;;;;;;;;;5055873;28;20025;-77
2022/01/23 09:54:15;;;;;;;149.48;70.68;;;;;;;;;;5056467;28;20044;-77
2022/01/23 09:56:43;;;;;;;141.32;64.38;;;;;;;;;;5056205;28;20124;-77
2022/01/23 09:59:16;;;;;;;130.80;62.78;;;;;;;;;;5057396;28;20098;-77
2022/01/23 10:01:45;;;;;;;154.27;76.53;;;;;;;;;;5056751;28;20021;-76
2022/01/23 10:04:14;;;;;;;138.77;67.47;;;;;;;;;;5056583;28;20418;-77
2022/01/23 10:06:42;;;;;;;105.95;54.47;;;;;;;;;;5056517;28;20079;-78
2022/01/23 10:09:37;;;;;;;145.98;71.55;;;;;;;;;;5061640;28;20084;-83
2022/01/23 10:12:06;;;;;;;133.90;60.55;;;;;;;;;;5055135;28;20017;-77
2022/01/23 10:14:35;;;;;;;115.47;56.75;;;;;;;;;;5055735;28;20025;-76
2022/01/23 10:17:05;;;;;;;102.38;49.08;;;;;;;;;;5057014;28;20032;-76
2022/01/23 10:19:33;;;;;;;96.72;46.13;;;;;;;;;;5057879;28;20028;-75
2022/01/23 10:22:03;;;;;;;90.82;43.58;;;;;;;;;;5057359;28;20159;-76
2022/01/23 10:24:31;;;;;;;126.88;61.03;;;;;;;;;;5055922;28;20064;-78
2022/01/23 10:27:00;;;;;;;132.55;64.32;;;;;;;;;;5056934;28;20033;-77
2022/01/23 10:29:34;;;;;;;92.78;43.67;;;;;;;;;;5056448;28;20021;-77
2022/01/23 10:32:23;;;;;;;129.07;57.42;;;;;;;;;;5058685;28;20032;-79
2022/01/23 10:35:02;;;;;;;140.07;65.72;;;;;;;;;;5056075;28;20250;-77
2022/01/23 10:37:42;;;;;;;146.52;60.17;;;;;;;;;;5061721;28;20078;-78
2022/01/23 10:40:31;;;;;;;128.40;57.22;;;;;;;;;;5060375;28;20477;-82
2022/01/23 10:48:42;;;;;;;94.22;41.67;;;;;;;;;;5060187;28;20067;-84
2022/01/23 10:51:19;;;;;;;92.95;44.88;;;;;;;;;;5058968;28;20102;-83
2022/01/23 10:54:06;;;;;;;144.05;68.90;;;;;;;;;;5059616;28;20025;-83
2022/01/23 10:56:39;;;;;;;166.07;90.53;;;;;;;;;;5058325;28;20036;-76
2022/01/23 10:59:11;;;;;;;176.82;84.55;;;;;;;;;;5059847;28;20025;-77
2022/01/23 11:01:59;;;;;;;123.40;57.75;;;;;;;;;;5059357;28;20017;-77
2022/01/23 11:04:27;;;;;;;84.38;39.22;;;;;;;;;;5058784;28;20043;-77
2022/01/23 11:07:08;;;;;;;149.00;70.68;;;;;;;;;;5058885;28;20476;-78
2022/01/23 11:09:36;;;;;;;155.18;73.28;;;;;;;;;;5042443;28;20029;-78
2022/01/23 11:12:14;;;;;;;211.23;100.60;;;;;;;;;;5041863;28;20043;-79
2022/01/23 11:17:28;;;;;;;123.53;61.67;;;;;;;;;;5059048;28;20032;-80
2022/01/23 11:19:58;;;;;;;102.03;48.08;;;;;;;;;;5041412;28;20025;-79
2022/01/23 11:22:47;;;;;;;86.20;42.72;;;;;;;;;;5059539;28;20325;-80
2022/01/23 11:25:16;;;;;;;100.78;45.72;;;;;;;;;;5020557;28;20458;-77
2022/01/23 11:27:45;;;;;;;128.15;57.53;;;;;;;;;;5019329;28;20042;-78
2022/01/23 11:30:13;;;;;;;200.48;91.30;;;;;;;;;;5017787;28;20030;-77
2022/01/23 11:32:42;;;;;;;97.38;49.00;;;;;;;;;;5002720;28;20062;-83
2022/01/23 11:35:18;;;;;;;76.57;37.75;;;;;;;;;;5003489;28;20038;-78
2022/01/23 11:37:50;;;;;;;95.28;46.15;;;;;;;;;;5002402;28;20029;-77
2022/01/23 11:53:55;;;;;;;120.53;52.92;;;;;;;;;;5036221;28;20068;-78
2022/01/23 11:56:33;;;;;;;154.15;70.22;;;;;;;;;;5040109;28;20041;-80
2022/01/23 11:59:34;;;;;;;109.55;52.17;;;;;;;;;;5093967;28;20025;-79
2022/01/23 12:02:12;;;;;;;119.15;58.47;;;;;;;;;;5093467;28;20026;-78
2022/01/23 12:04:43;;;;;;;125.78;60.20;;;;;;;;;;5078765;28;20017;-80
2022/01/23 12:07:15;;;;;;;88.97;42.35;;;;;;;;;;5072560;28;20036;-79
2022/01/23 12:09:45;;;;;;;126.30;54.42;;;;;;;;;;5070433;28;20027;-77
2022/01/23 12:17:22;;;;;;;117.25;53.10;;;;;;;;;;5085000;28;20078;-81
2022/01/23 12:19:58;;;;;;;138.10;62.42;;;;;;;;;;5081125;28;20086;-78
2022/01/23 12:22:36;;;;;;;151.90;61.60;;;;;;;;;;5084035;28;20078;-80
2022/01/23 12:25:20;;;;;;;106.88;47.25;;;;;;;;;;5084760;28;20020;-80
2022/01/23 12:28:07;;;;;;;106.53;47.45;;;;;;;;;;5083205;28;20048;-81
2022/01/23 12:30:36;;;;;;;131.00;58.33;;;;;;;;;;5062883;28;20040;-80
2022/01/23 12:33:09;;;;;;;144.05;63.13;;;;;;;;;;5062221;28;20027;-80
2022/01/23 12:35:41;;;;;;;120.35;54.03;;;;;;;;;;5078572;28;20017;-80
2022/01/23 12:38:10;;;;;;;131.68;55.95;;;;;;;;;;5062175;28;20035;-79
2022/01/23 12:40:43;;;;;;;120.78;54.25;;;;;;;;;;5080179;28;20032;-80
2022/01/23 12:43:21;;;;;;;113.07;49.53;;;;;;;;;;5081199;28;20414;-76
2022/01/23 12:45:54;;;;;;;116.43;55.10;;;;;;;;;;5061681;28;20365;-77
2022/01/23 12:48:32;;;;;;;141.90;69.80;;;;;;;;;;5078366;28;20105;-78
2022/01/23 12:51:04;;;;;;;91.30;42.10;;;;;;;;;;5061289;28;20146;-76
2022/01/23 12:53:46;;;;;;;127.18;56.40;;;;;;;;;;5060640;28;20024;-77
2022/01/23 12:56:18;;;;;;;110.85;54.08;;;;;;;;;;5059362;28;20039;-78
2022/01/23 12:58:54;;;;;;;112.95;51.53;;;;;;;;;;5077343;28;20157;-76
2022/01/23 13:01:23;;;;;;;119.78;54.72;;;;;;;;;;5077414;28;20114;-76
2022/01/23 13:03:56;;;;;;;108.20;51.58;;;;;;;;;;5059465;28;20142;-77
2022/01/23 13:06:44;;;;;;;134.05;61.47;;;;;;;;;;5059262;28;20077;-76
2022/01/23 13:10:02;;;;;;;97.28;46.47;;;;;;;;;;5076930;28;20051;-78
2022/01/23 13:17:43;;;;;;;110.13;52.67;;;;;;;;;;5076656;28;20028;-77
2022/01/23 13:31:57;;;;;;;97.10;48.70;;;;;;;;;;4995311;28;20037;-76
2022/01/23 13:34:33;;;;;;;98.00;44.88;;;;;;;;;;4995373;28;20018;-77
2022/01/23 13:37:03;;;;;;;113.65;52.75;;;;;;;;;;4995220;28;20034;-76
2022/01/23 13:39:34;;;;;;;119.28;55.55;;;;;;;;;;4978935;28;20034;-75
2022/01/23 13:42:49;;;;;;;92.43;44.75;;;;;;;;;;4995395;28;20034;-76
2022/01/23 14:04:25;;;;;;;109.35;51.08;;;;;;;;;;5036405;28;20029;-76
2022/01/23 14:06:53;;;;;;;100.35;45.03;;;;;;;;;;5018412;28;20029;-75
2022/01/23 14:09:23;;;;;;;138.93;65.00;;;;;;;;;;5017858;28;20378;-75
2022/01/23 14:11:51;;;;;;;87.47;42.05;;;;;;;;;;5019721;28;20060;-74
2022/01/23 14:14:27;;;;;;;124.68;60.10;;;;;;;;;;5021961;28;20104;-76
2022/01/23 14:16:56;;;;;;;99.28;47.03;;;;;;;;;;5039520;28;20029;-75
2022/01/23 14:19:26;;;;;;;134.95;61.38;;;;;;;;;;5039421;28;20101;-75
2022/01/23 14:22:02;;;;;;;116.82;51.33;;;;;;;;;;5039521;28;20037;-77
2022/01/23 14:24:33;;;;;;;81.38;39.40;;;;;;;;;;5021909;28;20036;-77
2022/01/23 14:27:10;;;;;;;112.10;55.13;;;;;;;;;;5039657;28;20025;-75
2022/01/23 14:29:55;;;;;;;219.30;91.15;;;;;;;;;;5022211;28;20422;-77
2022/01/23 14:32:41;;;;;;;140.63;64.57;;;;;;;;;;5041436;28;20021;-83
2022/01/23 14:35:16;;;;;;;154.00;73.50;;;;;;;;;;5041744;28;20024;-84
2022/01/23 14:37:44;;;;;;;134.65;59.42;;;;;;;;;;5043342;28;20021;-83
2022/01/23 14:40:24;;;;;;;136.82;56.90;;;;;;;;;;5022895;28;20029;-79
2022/01/23 14:42:59;;;;;;;120.65;54.10;;;;;;;;;;5040051;28;20036;-79
2022/01/23 14:45:28;;;;;;;111.88;54.20;;;;;;;;;;5039611;28;20029;-78
2022/01/23 14:47:56;;;;;;;66.50;34.50;;;;;;;;;;5022041;28;20029;-79
2022/01/23 14:50:26;;;;;;;109.38;51.95;;;;;;;;;;5039559;28;20039;-79
2022/01/23 14:52:53;;;;;;;102.75;49.25;;;;;;;;;;5021854;28;20445;-78
2022/01/23 14:55:21;;;;;;;107.10;50.40;;;;;;;;;;5039385;28;20033;-78
2022/01/23 14:57:48;;;;;;;76.38;37.13;;;;;;;;;;5034341;28;20411;-79
2022/01/23 15:00:15;;;;;;;102.88;46.92;;;;;;;;;;5059191;28;20100;-82
2022/01/23 15:02:43;;;;;;;78.88;39.22;;;;;;;;;;5059611;28;20024;-81
2022/01/23 15:05:10;;;;;;;115.88;52.33;;;;;;;;;;5059239;28;20048;-82
2022/01/23 15:07:40;;;;;;;104.45;51.03;;;;;;;;;;5058788;28;20075;-81
2022/01/23 15:10:09;;;;;;;91.35;41.65;;;;;;;;;;5041240;28;20017;-81
2022/01/23 15:12:37;;;;;;;88.30;41.15;;;;;;;;;;5041371;28;20021;-81
2022/01/23 15:15:05;;;;;;;254.75;116.10;;;;;;;;;;5041057;28;20023;-82
2022/01/23 15:17:33;;;;;;;116.88;54.13;;;;;;;;;;5041010;28;20032;-82
2022/01/23 15:20:01;;;;;;;103.57;50.05;;;;;;;;;;5040825;28;20052;-82
2022/01/23 15:22:29;;;;;;;95.82;45.58;;;;;;;;;;5040806;28;20036;-80
2022/01/23 15:24:57;;;;;;;127.53;57.67;;;;;;;;;;5042331;28;20151;-82
2022/01/23 15:27:24;;;;;;;140.10;62.90;;;;;;;;;;5041516;28;20086;-82
2022/01/23 15:29:52;;;;;;;102.00;47.05;;;;;;;;;;5041335;28;20025;-82
2022/01/23 15:32:19;;;;;;;108.85;51.55;;;;;;;;;;5059033;28;20426;-81
2022/01/23 15:34:47;;;;;;;104.38;48.17;;;;;;;;;;5058945;28;20032;-81
2022/01/23 15:37:14;;;;;;;103.82;51.78;;;;;;;;;;5041470;28;20059;-82
2022/01/23 15:39:43;;;;;;;96.82;47.05;;;;;;;;;;5058780;28;20155;-81
2022/01/23 15:42:10;;;;;;;120.68;52.58;;;;;;;;;;5041122;28;20025;-81
2022/01/23 15:44:39;;;;;;;106.18;50.03;;;;;;;;;;5041151;28;20074;-82
2022/01/23 15:47:07;;;;;;;105.90;48.28;;;;;;;;;;5041448;28;20033;-81
2022/01/23 15:49:34;;;;;;;99.35;47.35;;;;;;;;;;5041708;28;20035;-80
2022/01/23 15:52:03;;;;;;;96.07;45.60;;;;;;;;;;5058809;28;20045;-80
2022/01/23 15:54:31;;;;;;;91.50;45.30;;;;;;;;;;5040781;28;20413;-81
2022/01/23 15:56:57;;;;;;;102.03;46.90;;;;;;;;;;5042993;28;20053;-82
2022/01/23 15:59:25;;;;;;;93.85;45.72;;;;;;;;;;5057748;28;20088;-81
2022/01/23 16:01:53;;;;;;;97.68;45.88;;;;;;;;;;5058839;28;20025;-81
2022/01/23 16:04:21;;;;;;;124.25;57.30;;;;;;;;;;5057428;28;20445;-80
2022/01/23 16:06:49;;;;;;;118.30;56.15;;;;;;;;;;5057383;28;20083;-81
2022/01/23 16:09:17;;;;;;;145.95;69.63;;;;;;;;;;5078261;28;20016;-82
2022/01/23 16:11:46;;;;;;;139.70;59.55;;;;;;;;;;5060678;28;20021;-82
2022/01/23 16:14:17;;;;;;;107.78;51.90;;;;;;;;;;5078842;28;20024;-82
2022/01/23 16:16:44;;;;;;;113.60;52.33;;;;;;;;;;5078562;28;20055;-81
2022/01/23 16:19:12;;;;;;;111.93;49.92;;;;;;;;;;5061007;28;20028;-81
2022/01/23 16:21:44;;;;;;;99.03;45.83;;;;;;;;;;5061781;28;20028;-82
2022/01/23 16:24:12;;;;;;;93.88;43.45;;;;;;;;;;5059552;28;20021;-82
2022/01/23 16:26:40;;;;;;;90.90;42.22;;;;;;;;;;5060425;28;20024;-81
2022/01/23 16:29:09;;;;;;;82.95;38.83;;;;;;;;;;5061806;28;20020;-83
2022/01/23 16:31:36;;;;;;;72.28;34.42;;;;;;;;;;5078442;28;20071;-82
2022/01/23 16:34:04;;;;;;;93.05;39.78;;;;;;;;;;5060137;28;20021;-83
2022/01/23 16:36:33;;;;;;;88.93;40.90;;;;;;;;;;5061929;28;20029;-82
2022/01/23 16:39:01;;;;;;;86.80;39.35;;;;;;;;;;5080149;28;20070;-81
2022/01/23 16:41:29;;;;;;;75.07;35.03;;;;;;;;;;5059620;28;20025;-82
2022/01/23 16:43:57;;;;;;;75.30;35.35;;;;;;;;;;5059650;28;20378;-82
2022/01/23 16:46:24;;;;;;;73.55;37.03;;;;;;;;;;5078078;28;20479;-80
2022/01/23 16:48:52;;;;;;;73.90;34.50;;;;;;;;;;5060512;28;20449;-82
2022/01/23 16:51:19;;;;;;;100.82;48.97;;;;;;;;;;5079142;28;20025;-82
2022/01/23 16:53:47;;;;;;;85.43;43.50;;;;;;;;;;5078102;28;20021;-82
2022/01/23 16:56:17;;;;;;;73.10;34.83;;;;;;;;;;5061031;28;20021;-83
2022/01/23 16:58:45;;;;;;;76.13;34.83;;;;;;;;;;5063165;28;20055;-83
2022/01/23 17:01:13;;;;;;;79.22;35.35;;;;;;;;;;5061546;28;20055;-82
2022/01/23 17:03:50;;;;;;;72.88;34.53;;;;;;;;;;5060947;28;20024;-83
2022/01/23 17:06:18;;;;;;;81.85;38.13;;;;;;;;;;5060280;28;20375;-83
2022/01/23 17:08:46;;;;;;;76.30;36.45;;;;;;;;;;5077566;28;20425;-83
2022/01/23 17:11:14;;;;;;;86.80;38.30;;;;;;;;;;5059765;28;20024;-83
2022/01/23 17:13:44;;;;;;;79.63;36.78;;;;;;;;;;5078659;28;20342;-82
2022/01/23 17:16:12;;;;;;;76.38;36.63;;;;;;;;;;5077680;28;20021;-83
2022/01/23 17:18:43;;;;;;;76.18;37.13;;;;;;;;;;5062527;28;20028;-84
2022/01/23 17:21:11;;;;;;;92.03;41.80;;;;;;;;;;5062613;28;20032;-82
2022/01/23 17:23:39;;;;;;;95.05;44.90;;;;;;;;;;5080278;28;20337;-82
2022/01/23 17:26:09;;;;;;;99.97;48.10;;;;;;;;;;5076496;28;20028;-82
2022/01/23 17:28:37;;;;;;;98.30;48.20;;;;;;;;;;5076841;28;20448;-82
2022/01/23 17:31:05;;;;;;;125.43;54.83;;;;;;;;;;5060620;28;20367;-82
2022/01/23 17:33:32;;;;;;;112.40;54.20;;;;;;;;;;5078662;28;20329;-82
2022/01/23 17:36:00;;;;;;;118.88;55.25;;;;;;;;;;5059801;28;20020;-82
2022/01/23 17:38:27;;;;;;;127.78;57.85;;;;;;;;;;5077041;28;20024;-81
2022/01/23 17:40:55;;;;;;;121.22;55.72;;;;;;;;;;5058858;28;20035;-81
2022/01/23 17:43:22;;;;;;;109.55;52.85;;;;;;;;;;5058943;28;20035;-82
2022/01/23 17:45:52;;;;;;;123.82;55.50;;;;;;;;;;5058424;28;20024;-81
2022/01/23 17:48:34;;;;;;;138.18;66.03;;;;;;;;;;5076434;28;20095;-81
2022/01/23 17:51:03;;;;;;;142.65;64.68;;;;;;;;;;5076312;28;20042;-81
2022/01/23 17:53:35;;;;;;;136.18;63.13;;;;;;;;;;5076672;28;20321;-82
2022/01/23 17:56:03;;;;;;;142.98;65.25;;;;;;;;;;5058707;28;20016;-81
2022/01/23 17:58:31;;;;;;;144.90;67.82;;;;;;;;;;5037181;28;20069;-82
2022/01/23 18:00:58;;;;;;;145.52;69.60;;;;;;;;;;5036696;28;20322;-81
2022/01/23 18:03:26;;;;;;;163.82;75.35;;;;;;;;;;5035783;28;20500;-81
2022/01/23 18:05:53;;;;;;;155.07;71.47;;;;;;;;;;5036718;28;20057;-81
2022/01/23 18:08:21;;;;;;;145.20;64.35;;;;;;;;;;5019294;28;20029;-81
2022/01/23 18:10:49;;;;;;;131.35;60.25;;;;;;;;;;5036944;28;20034;-81
2022/01/23 18:13:21;;;;;;;124.35;56.35;;;;;;;;;;5019175;28;20024;-82